Terminal Aerodrome Forecast
Issued by NWS

Home | Current Version | Previous Version | Text Only | Print | Product List | Glossary On
Versions: 1 2 3 4 5 6 7 8 9 10 11 12 13 14 15 16 17 18 19 20 21
510
FTUS43 KJKL 252335
TAFSME
TAF
KSME 252335Z 2600/2624 19004KT P6SM VCTS BKN070CB BKN150
      TEMPO 2600/2603 4SM -TSRA
     FM260400 VRB04KT P6SM BKN150
     FM260800 VRB03KT P6SM VCSH SCT070 BKN150
     FM261500 22007KT P6SM BKN110
     FM261800 22008KT P6SM SCT250=

USA.gov is the U.S. government's official web portal to all federal, state and local government web resources and services.